sensor_id;sensor_type;location;lat;lon;timestamp;pressure;altitude;pressure_sealevel;temperature
1532;BMP280;759;53.170;8.210;2022-10-19T00:00:25;101875.00;;;11.82
1532;BMP280;759;53.170;8.210;2022-10-19T00:02:50;101882.75;;;11.87
1532;BMP280;759;53.170;8.210;2022-10-19T00:05:15;101881.25;;;11.93
1532;BMP280;759;53.170;8.210;2022-10-19T00:07:40;101880.41;;;11.86
1532;BMP280;759;53.170;8.210;2022-10-19T00:10:05;101875.06;;;11.89
1532;BMP280;759;53.170;8.210;2022-10-19T00:12:31;101870.44;;;11.86
1532;BMP280;759;53.170;8.210;2022-10-19T00:14:56;101880.91;;;11.98
1532;BMP280;759;53.170;8.210;2022-10-19T00:17:21;101868.03;;;11.74
1532;BMP280;759;53.170;8.210;2022-10-19T00:19:46;101871.13;;;11.76
1532;BMP280;759;53.170;8.210;2022-10-19T00:22:12;101879.22;;;11.80
1532;BMP280;759;53.170;8.210;2022-10-19T00:24:37;101867.03;;;11.89
1532;BMP280;759;53.170;8.210;2022-10-19T00:27:02;101875.41;;;11.84
1532;BMP280;759;53.170;8.210;2022-10-19T00:29:27;101870.84;;;11.88
1532;BMP280;759;53.170;8.210;2022-10-19T00:31:52;101883.53;;;11.91
1532;BMP280;759;53.170;8.210;2022-10-19T00:34:18;101872.72;;;11.84
1532;BMP280;759;53.170;8.210;2022-10-19T00:36:43;101871.69;;;11.92
1532;BMP280;759;53.170;8.210;2022-10-19T00:39:12;101870.56;;;11.97
1532;BMP280;759;53.170;8.210;2022-10-19T00:41:37;101877.53;;;12.02
1532;BMP280;759;53.170;8.210;2022-10-19T00:44:53;101881.34;;;12.01
1532;BMP280;759;53.170;8.210;2022-10-19T00:46:51;101873.59;;;11.95
1532;BMP280;759;53.170;8.210;2022-10-19T00:49:19;101873.56;;;11.92
1532;BMP280;759;53.170;8.210;2022-10-19T00:51:52;101877.41;;;11.91
1532;BMP280;759;53.170;8.210;2022-10-19T00:54:18;101876.28;;;11.95
1532;BMP280;759;53.170;8.210;2022-10-19T00:56:44;101878.25;;;11.98
1532;BMP280;759;53.170;8.210;2022-10-19T00:59:10;101874.38;;;11.96
1532;BMP280;759;53.170;8.210;2022-10-19T01:01:37;101875.56;;;11.98
1532;BMP280;759;53.170;8.210;2022-10-19T01:04:02;101874.38;;;11.96
1532;BMP280;759;53.170;8.210;2022-10-19T01:06:27;101876.28;;;11.95
1532;BMP280;759;53.170;8.210;2022-10-19T01:08:53;101869.75;;;11.93
1532;BMP280;759;53.170;8.210;2022-10-19T01:11:27;101869.00;;;11.92
1532;BMP280;759;53.170;8.210;2022-10-19T01:21:43;101867.78;;;11.90
1532;BMP280;759;53.170;8.210;2022-10-19T01:32:05;101845.28;;;11.61
1532;BMP280;759;53.170;8.210;2022-10-19T01:37:01;101878.97;;;11.95
1532;BMP280;759;53.170;8.210;2022-10-19T01:47:17;101872.81;;;11.91
1532;BMP280;759;53.170;8.210;2022-10-19T01:52:37;101870.16;;;11.95
1532;BMP280;759;53.170;8.210;2022-10-19T01:55:04;101863.22;;;11.90
1532;BMP280;759;53.170;8.210;2022-10-19T01:57:32;101855.22;;;11.97
1532;BMP280;759;53.170;8.210;2022-10-19T01:59:57;101864.69;;;11.84
1532;BMP280;759;53.170;8.210;2022-10-19T02:02:25;101869.78;;;11.96
1532;BMP280;759;53.170;8.210;2022-10-19T02:04:51;101863.22;;;11.90
1532;BMP280;759;53.170;8.210;2022-10-19T02:07:18;101868.22;;;11.95
1532;BMP280;759;53.170;8.210;2022-10-19T02:09:44;101868.94;;;11.89
1532;BMP280;759;53.170;8.210;2022-10-19T02:12:09;101857.13;;;11.97
1532;BMP280;759;53.170;8.210;2022-10-19T02:14:39;101862.88;;;11.95
1532;BMP280;759;53.170;8.210;2022-10-19T02:17:13;101858.25;;;11.92
1532;BMP280;759;53.170;8.210;2022-10-19T02:19:39;101860.16;;;11.92
1532;BMP280;759;53.170;8.210;2022-10-19T02:22:05;101856.63;;;11.84
1532;BMP280;759;53.170;8.210;2022-10-19T02:24:30;101855.03;;;11.76
1532;BMP280;759;53.170;8.210;2022-10-19T02:26:55;101860.06;;;11.81
1532;BMP280;759;53.170;8.210;2022-10-19T02:29:20;101862.66;;;11.74
1532;BMP280;759;53.170;8.210;2022-10-19T02:31:46;101857.44;;;11.85
1532;BMP280;759;53.170;8.210;2022-10-19T02:34:11;101854.63;;;11.74
1532;BMP280;759;53.170;8.210;2022-10-19T02:36:37;101861.94;;;11.77
1532;BMP280;759;53.170;8.210;2022-10-19T02:39:02;101860.47;;;11.83
1532;BMP280;759;53.170;8.210;2022-10-19T02:41:44;101868.09;;;11.81
1532;BMP280;759;53.170;8.210;2022-10-19T02:44:16;101875.78;;;11.83
1532;BMP280;759;53.170;8.210;2022-10-19T02:46:43;101875.41;;;11.84
1532;BMP280;759;53.170;8.210;2022-10-19T02:49:10;101870.44;;;11.86
1532;BMP280;759;53.170;8.210;2022-10-19T02:51:36;101868.16;;;11.85
1532;BMP280;759;53.170;8.210;2022-10-19T02:54:02;101873.13;;;11.86
1532;BMP280;759;53.170;8.210;2022-10-19T02:56:28;101873.53;;;11.88
1532;BMP280;759;53.170;8.210;2022-10-19T02:58:53;101866.91;;;11.75
1532;BMP280;759;53.170;8.210;2022-10-19T03:01:18;101874.22;;;11.78
1532;BMP280;759;53.170;8.210;2022-10-19T03:03:43;101873.88;;;11.83
1532;BMP280;759;53.170;8.210;2022-10-19T03:06:08;101880.72;;;11.77
1532;BMP280;759;53.170;8.210;2022-10-19T03:08:34;101884.47;;;11.72
1532;BMP280;759;53.170;8.210;2022-10-19T03:10:59;101883.66;;;11.68
1532;BMP280;759;53.170;8.210;2022-10-19T03:13:24;101874.44;;;11.66
1532;BMP280;759;53.170;8.210;2022-10-19T03:15:49;101878.59;;;11.60
1532;BMP280;759;53.170;8.210;2022-10-19T03:18:15;101879.50;;;11.71
1532;BMP280;759;53.170;8.210;2022-10-19T03:20:40;101887.91;;;11.73
1532;BMP280;759;53.170;8.210;2022-10-19T03:23:05;101874.94;;;11.75
1532;BMP280;759;53.170;8.210;2022-10-19T03:25:30;101873.72;;;11.69
1532;BMP280;759;53.170;8.210;2022-10-19T03:27:55;101873.00;;;11.72
1532;BMP280;759;53.170;8.210;2022-10-19T03:30:21;101872.50;;;11.63
1532;BMP280;759;53.170;8.210;2022-10-19T03:32:46;101867.81;;;11.52
1532;BMP280;759;53.170;8.210;2022-10-19T03:35:11;101869.97;;;11.43
1532;BMP280;759;53.170;8.210;2022-10-19T03:37:36;101882.28;;;11.48
1532;BMP280;759;53.170;8.210;2022-10-19T03:40:01;101884.53;;;11.42
1532;BMP280;759;53.170;8.210;2022-10-19T03:42:27;101884.13;;;11.40
1532;BMP280;759;53.170;8.210;2022-10-19T03:44:52;101883.59;;;11.31
1532;BMP280;759;53.170;8.210;2022-10-19T03:47:17;101890.22;;;11.37
1532;BMP280;759;53.170;8.210;2022-10-19T03:49:42;101880.59;;;11.36
1532;BMP280;759;53.170;8.210;2022-10-19T03:52:08;101882.19;;;11.41
1532;BMP280;759;53.170;8.210;2022-10-19T03:54:34;101882.63;;;11.43
1532;BMP280;759;53.170;8.210;2022-10-19T03:56:59;101880.66;;;11.40
1532;BMP280;759;53.170;8.210;2022-10-19T03:59:24;101879.16;;;11.42
1532;BMP280;759;53.170;8.210;2022-10-19T04:01:49;101880.69;;;11.43
1532;BMP280;759;53.170;8.210;2022-10-19T04:04:15;101887.22;;;11.42
1532;BMP280;759;53.170;8.210;2022-10-19T04:06:41;101882.31;;;11.51
1532;BMP280;759;53.170;8.210;2022-10-19T04:09:08;101890.00;;;11.53
1532;BMP280;759;53.170;8.210;2022-10-19T04:11:33;101886.97;;;11.54
1532;BMP280;759;53.170;8.210;2022-10-19T04:13:59;101891.91;;;11.52
1532;BMP280;759;53.170;8.210;2022-10-19T04:16:26;101892.38;;;11.58
1532;BMP280;759;53.170;8.210;2022-10-19T04:18:51;101894.28;;;11.58
1532;BMP280;759;53.170;8.210;2022-10-19T04:21:24;101895.25;;;11.42
1532;BMP280;759;53.170;8.210;2022-10-19T04:23:50;101896.88;;;11.50
1532;BMP280;759;53.170;8.210;2022-10-19T04:26:16;101906.09;;;11.53
1532;BMP280;759;53.170;8.210;2022-10-19T04:28:41;101899.94;;;11.49
1532;BMP280;759;53.170;8.210;2022-10-19T04:31:06;101904.25;;;11.57
1532;BMP280;759;53.170;8.210;2022-10-19T04:33:32;101904.53;;;11.52
1532;BMP280;759;53.170;8.210;2022-10-19T04:36:00;101898.50;;;11.59
1532;BMP280;759;53.170;8.210;2022-10-19T04:38:26;101910.38;;;11.58
1532;BMP280;759;53.170;8.210;2022-10-19T04:40:52;101906.94;;;11.61
1532;BMP280;759;53.170;8.210;2022-10-19T04:43:17;101903.16;;;11.62
1532;BMP280;759;53.170;8.210;2022-10-19T04:45:42;101902.31;;;11.58
1532;BMP280;759;53.170;8.210;2022-10-19T04:48:08;101910.69;;;11.52
1532;BMP280;759;53.170;8.210;2022-10-19T04:50:33;101908.84;;;11.57
1532;BMP280;759;53.170;8.210;2022-10-19T04:52:58;101913.44;;;11.60
1532;BMP280;759;53.170;8.210;2022-10-19T04:55:23;101908.50;;;11.62
1532;BMP280;759;53.170;8.210;2022-10-19T04:57:48;101907.34;;;11.63
1532;BMP280;759;53.170;8.210;2022-10-19T05:00:14;101911.59;;;11.64
1532;BMP280;759;53.170;8.210;2022-10-19T05:02:42;101901.59;;;11.61
1532;BMP280;759;53.170;8.210;2022-10-19T05:05:08;101904.59;;;11.55
1532;BMP280;759;53.170;8.210;2022-10-19T05:07:33;101909.22;;;11.59
1532;BMP280;759;53.170;8.210;2022-10-19T05:09:59;101897.41;;;11.63
1532;BMP280;759;53.170;8.210;2022-10-19T05:12:24;101902.34;;;11.61
1532;BMP280;759;53.170;8.210;2022-10-19T05:14:49;101895.44;;;11.57
1532;BMP280;759;53.170;8.210;2022-10-19T05:17:14;101897.72;;;11.58
1532;BMP280;759;53.170;8.210;2022-10-19T05:19:39;101893.53;;;11.61
1532;BMP280;759;53.170;8.210;2022-10-19T05:22:05;101893.88;;;11.55
1532;BMP280;759;53.170;8.210;2022-10-19T05:24:30;101906.84;;;11.53
1532;BMP280;759;53.170;8.210;2022-10-19T05:26:56;101897.69;;;11.54
1532;BMP280;759;53.170;8.210;2022-10-19T05:29:21;101883.84;;;11.49
1532;BMP280;759;53.170;8.210;2022-10-19T05:31:48;101899.66;;;11.61
1532;BMP280;759;53.170;8.210;2022-10-19T05:34:13;101885.47;;;11.57
1532;BMP280;759;53.170;8.210;2022-10-19T05:36:38;101893.47;;;11.53
1532;BMP280;759;53.170;8.210;2022-10-19T05:39:08;101883.09;;;11.48
1532;BMP280;759;53.170;8.210;2022-10-19T05:41:35;101888.09;;;11.53
1532;BMP280;759;53.170;8.210;2022-10-19T05:44:01;101893.09;;;11.55
1532;BMP280;759;53.170;8.210;2022-10-19T05:46:27;101892.34;;;11.54
1532;BMP280;759;53.170;8.210;2022-10-19T05:48:53;101888.53;;;11.59
1532;BMP280;759;53.170;8.210;2022-10-19T05:51:19;101889.75;;;11.65
1532;BMP280;759;53.170;8.210;2022-10-19T05:53:45;101895.88;;;11.62
1532;BMP280;759;53.170;8.210;2022-10-19T05:56:18;101888.94;;;11.61
1532;BMP280;759;53.170;8.210;2022-10-19T05:58:47;101897.00;;;11.61
1532;BMP280;759;53.170;8.210;2022-10-19T06:01:12;101892.84;;;11.64
1532;BMP280;759;53.170;8.210;2022-10-19T06:03:38;101890.00;;;11.53
1532;BMP280;759;53.170;8.210;2022-10-19T06:06:03;101890.06;;;11.57
1532;BMP280;759;53.170;8.210;2022-10-19T06:08:29;101886.97;;;11.54
1532;BMP280;759;53.170;8.210;2022-10-19T06:11:03;101893.88;;;11.55
1532;BMP280;759;53.170;8.210;2022-10-19T06:13:28;101889.31;;;11.56
1532;BMP280;759;53.170;8.210;2022-10-19T06:15:53;101890.06;;;11.57
1532;BMP280;759;53.170;8.210;2022-10-19T06:18:18;101898.56;;;11.66
1532;BMP280;759;53.170;8.210;2022-10-19T06:20:44;101900.47;;;11.65
1532;BMP280;759;53.170;8.210;2022-10-19T06:23:09;101908.50;;;11.65
1532;BMP280;759;53.170;8.210;2022-10-19T06:25:34;101912.44;;;11.71
1532;BMP280;759;53.170;8.210;2022-10-19T06:28:00;101907.16;;;11.79
1532;BMP280;759;53.170;8.210;2022-10-19T06:30:25;101911.66;;;11.71
1532;BMP280;759;53.170;8.210;2022-10-19T06:32:51;101908.97;;;11.71
1532;BMP280;759;53.170;8.210;2022-10-19T06:35:16;101907.09;;;11.71
1532;BMP280;759;53.170;8.210;2022-10-19T06:37:41;101914.00;;;11.76
1532;BMP280;759;53.170;8.210;2022-10-19T06:40:07;101910.97;;;11.77
1532;BMP280;759;53.170;8.210;2022-10-19T06:42:32;101912.97;;;11.88
1532;BMP280;759;53.170;8.210;2022-10-19T06:44:58;101911.47;;;11.87
1532;BMP280;759;53.170;8.210;2022-10-19T06:47:23;101919.59;;;11.97
1532;BMP280;759;53.170;8.210;2022-10-19T06:49:57;101929.63;;;12.01
1532;BMP280;759;53.170;8.210;2022-10-19T06:52:23;101921.16;;;11.98
1532;BMP280;759;53.170;8.210;2022-10-19T06:54:48;101926.94;;;12.01
1532;BMP280;759;53.170;8.210;2022-10-19T06:57:13;101939.53;;;11.96
1532;BMP280;759;53.170;8.210;2022-10-19T06:59:38;101933.38;;;11.92
1532;BMP280;759;53.170;8.210;2022-10-19T07:02:03;101938.03;;;12.03
1532;BMP280;759;53.170;8.210;2022-10-19T07:04:29;101939.59;;;12.04
1532;BMP280;759;53.170;8.210;2022-10-19T07:06:54;101921.88;;;11.95
1532;BMP280;759;53.170;8.210;2022-10-19T07:09:19;101945.06;;;12.14
1532;BMP280;759;53.170;8.210;2022-10-19T07:11:46;101943.63;;;12.20
1532;BMP280;759;53.170;8.210;2022-10-19T07:14:11;101947.56;;;12.30
1532;BMP280;759;53.170;8.210;2022-10-19T07:16:36;101947.88;;;12.25
1532;BMP280;759;53.170;8.210;2022-10-19T07:19:02;101956.72;;;12.29
1532;BMP280;759;53.170;8.210;2022-10-19T07:21:27;101945.63;;;12.31
1532;BMP280;759;53.170;8.210;2022-10-19T07:23:52;101946.78;;;12.33
1532;BMP280;759;53.170;8.210;2022-10-19T07:26:24;101956.81;;;12.40
1532;BMP280;759;53.170;8.210;2022-10-19T07:28:51;101951.50;;;12.44
1532;BMP280;759;53.170;8.210;2022-10-19T07:31:18;101963.44;;;12.50
1532;BMP280;759;53.170;8.210;2022-10-19T07:33:44;101962.25;;;12.44
1532;BMP280;759;53.170;8.210;2022-10-19T07:36:09;101959.50;;;12.40
1532;BMP280;759;53.170;8.210;2022-10-19T07:38:34;101965.72;;;12.48
1532;BMP280;759;53.170;8.210;2022-10-19T07:41:07;101959.56;;;12.44
1532;BMP280;759;53.170;8.210;2022-10-19T07:43:33;101963.78;;;12.48
1532;BMP280;759;53.170;8.210;2022-10-19T07:46:06;101960.00;;;12.53
1532;BMP280;759;53.170;8.210;2022-10-19T07:48:31;101964.28;;;12.61
1532;BMP280;759;53.170;8.210;2022-10-19T07:50:57;101961.59;;;12.61
1532;BMP280;759;53.170;8.210;2022-10-19T07:53:22;101963.25;;;12.73
1532;BMP280;759;53.170;8.210;2022-10-19T07:55:47;101964.81;;;12.81
1532;BMP280;759;53.170;8.210;2022-10-19T07:58:13;101963.31;;;12.83
1532;BMP280;759;53.170;8.210;2022-10-19T08:00:38;101964.81;;;12.81
1532;BMP280;759;53.170;8.210;2022-10-19T08:03:04;101968.69;;;12.83
1532;BMP280;759;53.170;8.210;2022-10-19T08:05:31;101973.38;;;12.94
1532;BMP280;759;53.170;8.210;2022-10-19T08:07:56;101973.75;;;12.96
1532;BMP280;759;53.170;8.210;2022-10-19T08:10:21;101971.78;;;12.85
1532;BMP280;759;53.170;8.210;2022-10-19T08:12:46;101971.88;;;13.00
1532;BMP280;759;53.170;8.210;2022-10-19T08:15:11;101973.84;;;13.10
1532;BMP280;759;53.170;8.210;2022-10-19T08:17:36;101970.47;;;13.20
1532;BMP280;759;53.170;8.210;2022-10-19T08:20:03;101979.25;;;13.17
1532;BMP280;759;53.170;8.210;2022-10-19T08:22:29;101979.31;;;13.28
1532;BMP280;759;53.170;8.210;2022-10-19T08:24:54;101971.28;;;13.32
1532;BMP280;759;53.170;8.210;2022-10-19T08:27:19;101982.09;;;13.39
1532;BMP280;759;53.170;8.210;2022-10-19T08:29:45;101981.69;;;13.44
1532;BMP280;759;53.170;8.210;2022-10-19T08:32:10;101979.72;;;13.26
1532;BMP280;759;53.170;8.210;2022-10-19T08:34:35;101984.31;;;13.26
1532;BMP280;759;53.170;8.210;2022-10-19T08:37:01;101986.25;;;13.29
1532;BMP280;759;53.170;8.210;2022-10-19T08:39:26;101987.06;;;13.44
1532;BMP280;759;53.170;8.210;2022-10-19T08:41:57;101987.53;;;13.53
1532;BMP280;759;53.170;8.210;2022-10-19T08:44:27;101980.63;;;13.56
1532;BMP280;759;53.170;8.210;2022-10-19T08:49:38;101982.91;;;13.61
1532;BMP280;759;53.170;8.210;2022-10-19T08:52:05;101988.72;;;13.66
1532;BMP280;759;53.170;8.210;2022-10-19T08:55:06;101980.66;;;13.70
1532;BMP280;759;53.170;8.210;2022-10-19T08:57:37;101982.59;;;13.69
1532;BMP280;759;53.170;8.210;2022-10-19T09:00:05;101986.09;;;13.81
1532;BMP280;759;53.170;8.210;2022-10-19T09:04:59;101988.41;;;13.89
1532;BMP280;759;53.170;8.210;2022-10-19T09:07:27;101990.00;;;14.01
1532;BMP280;759;53.170;8.210;2022-10-19T09:10:00;101986.91;;;13.99
1532;BMP280;759;53.170;8.210;2022-10-19T09:12:30;101977.66;;;14.00
1532;BMP280;759;53.170;8.210;2022-10-19T09:15:01;101973.47;;;14.13
1532;BMP280;759;53.170;8.210;2022-10-19T09:17:27;101978.81;;;14.06
1532;BMP280;759;53.170;8.210;2022-10-19T09:19:54;101976.56;;;14.23
1532;BMP280;759;53.170;8.210;2022-10-19T09:24:52;101980.78;;;14.24
1532;BMP280;759;53.170;8.210;2022-10-19T09:29:47;101974.28;;;14.39
1532;BMP280;759;53.170;8.210;2022-10-19T09:32:14;101976.56;;;14.55
1532;BMP280;759;53.170;8.210;2022-10-19T09:34:46;101977.75;;;14.50
1532;BMP280;759;53.170;8.210;2022-10-19T09:37:13;101972.34;;;14.43
1532;BMP280;759;53.170;8.210;2022-10-19T09:39:38;101973.50;;;14.56
1532;BMP280;759;53.170;8.210;2022-10-19T09:42:06;101976.94;;;14.68
1532;BMP280;759;53.170;8.210;2022-10-19T09:44:32;101968.50;;;14.51
1532;BMP280;759;53.170;8.210;2022-10-19T09:52:03;101972.34;;;14.68
1532;BMP280;759;53.170;8.210;2022-10-19T09:56:57;101972.34;;;14.72
1532;BMP280;759;53.170;8.210;2022-10-19T09:59:23;101961.97;;;14.56
1532;BMP280;759;53.170;8.210;2022-10-19T10:04:54;101965.44;;;14.63
1532;BMP280;759;53.170;8.210;2022-10-19T10:07:20;101966.94;;;14.68
1532;BMP280;759;53.170;8.210;2022-10-19T10:09:48;101967.34;;;14.59
1532;BMP280;759;53.170;8.210;2022-10-19T10:12:16;101960.81;;;14.39
1532;BMP280;759;53.170;8.210;2022-10-19T10:14:41;101957.72;;;14.37
1532;BMP280;759;53.170;8.210;2022-10-19T10:17:18;101962.34;;;14.47
1532;BMP280;759;53.170;8.210;2022-10-19T10:19:49;101955.06;;;14.33
1532;BMP280;759;53.170;8.210;2022-10-19T10:22:23;101959.66;;;14.54
1532;BMP280;759;53.170;8.210;2022-10-19T10:24:52;101964.63;;;14.70
1532;BMP280;759;53.170;8.210;2022-10-19T10:27:27;101976.16;;;14.92
1532;BMP280;759;53.170;8.210;2022-10-19T10:29:53;101977.66;;;15.07
1532;BMP280;759;53.170;8.210;2022-10-19T10:32:19;101970.72;;;14.99
1532;BMP280;759;53.170;8.210;2022-10-19T10:35:06;101971.53;;;14.89
1532;BMP280;759;53.170;8.210;2022-10-19T10:37:36;101977.66;;;15.11
1532;BMP280;759;53.170;8.210;2022-10-19T10:40:02;101975.34;;;15.06
1532;BMP280;759;53.170;8.210;2022-10-19T10:42:31;101967.66;;;14.97
1532;BMP280;759;53.170;8.210;2022-10-19T10:44:58;101959.63;;;14.83
1532;BMP280;759;53.170;8.210;2022-10-19T10:47:24;101953.84;;;14.81
1532;BMP280;759;53.170;8.210;2022-10-19T10:49:57;101946.56;;;14.49
1532;BMP280;759;53.170;8.210;2022-10-19T10:52:24;101942.34;;;14.34
1532;BMP280;759;53.170;8.210;2022-10-19T10:54:57;101950.81;;;14.47
1532;BMP280;759;53.170;8.210;2022-10-19T10:57:22;101950.03;;;14.53
1532;BMP280;759;53.170;8.210;2022-10-19T11:00:11;101949.25;;;14.71
1532;BMP280;759;53.170;8.210;2022-10-19T11:07:33;101926.09;;;14.98
1532;BMP280;759;53.170;8.210;2022-10-19T11:09:59;101926.44;;;15.04
1532;BMP280;759;53.170;8.210;2022-10-19T11:12:31;101932.16;;;15.24
1532;BMP280;759;53.170;8.210;2022-10-19T11:15:43;101928.66;;;15.34
1532;BMP280;759;53.170;8.210;2022-10-19T11:17:48;101915.94;;;15.35
1532;BMP280;759;53.170;8.210;2022-10-19T11:20:15;101914.00;;;15.35
1532;BMP280;759;53.170;8.210;2022-10-19T11:22:46;101919.81;;;15.30
1532;BMP280;759;53.170;8.210;2022-10-19T11:25:17;101911.28;;;15.31
1532;BMP280;759;53.170;8.210;2022-10-19T11:30:19;101916.81;;;15.03
1532;BMP280;759;53.170;8.210;2022-10-19T11:43:13;101901.09;;;14.80
1532;BMP280;759;53.170;8.210;2022-10-19T11:48:14;101894.31;;;15.38
1532;BMP280;759;53.170;8.210;2022-10-19T11:50:52;101895.75;;;15.64
1532;BMP280;759;53.170;8.210;2022-10-19T11:53:24;101894.13;;;15.70
1532;BMP280;759;53.170;8.210;2022-10-19T12:01:04;101875.84;;;15.37
1532;BMP280;759;53.170;8.210;2022-10-19T12:03:41;101876.69;;;15.23
1532;BMP280;759;53.170;8.210;2022-10-19T12:09:04;101863.97;;;15.20
1532;BMP280;759;53.170;8.210;2022-10-19T12:14:02;101863.56;;;15.28
1532;BMP280;759;53.170;8.210;2022-10-19T12:16:37;101868.47;;;15.44
1532;BMP280;759;53.170;8.210;2022-10-19T12:19:04;101860.41;;;15.41
1532;BMP280;759;53.170;8.210;2022-10-19T12:21:35;101854.91;;;15.59
1532;BMP280;759;53.170;8.210;2022-10-19T12:24:02;101866.78;;;15.68
1532;BMP280;759;53.170;8.210;2022-10-19T12:26:29;101864.06;;;15.72
1532;BMP280;759;53.170;8.210;2022-10-19T12:28:59;101854.41;;;15.71
1532;BMP280;759;53.170;8.210;2022-10-19T12:31:25;101855.66;;;15.63
1532;BMP280;759;53.170;8.210;2022-10-19T12:34:01;101856.38;;;15.67
1532;BMP280;759;53.170;8.210;2022-10-19T12:36:37;101844.16;;;15.51
1532;BMP280;759;53.170;8.210;2022-10-19T12:44:55;101835.72;;;15.42
1532;BMP280;759;53.170;8.210;2022-10-19T12:47:26;101838.78;;;15.51
1532;BMP280;759;53.170;8.210;2022-10-19T12:49:52;101827.59;;;15.53
1532;BMP280;759;53.170;8.210;2022-10-19T12:57:40;101832.63;;;15.96
1532;BMP280;759;53.170;8.210;2022-10-19T13:00:27;101834.47;;;16.06
1532;BMP280;759;53.170;8.210;2022-10-19T13:02:55;101825.16;;;16.11
1532;BMP280;759;53.170;8.210;2022-10-19T13:05:22;101820.47;;;16.15
1532;BMP280;759;53.170;8.210;2022-10-19T13:07:48;101816.00;;;16.01
1532;BMP280;759;53.170;8.210;2022-10-19T13:10:17;101812.03;;;16.09
1532;BMP280;759;53.170;8.210;2022-10-19T13:12:46;101811.56;;;15.80
1532;BMP280;759;53.170;8.210;2022-10-19T13:17:55;101800.97;;;15.59
1532;BMP280;759;53.170;8.210;2022-10-19T13:23:35;101794.13;;;15.43
1532;BMP280;759;53.170;8.210;2022-10-19T13:25:37;101781.41;;;15.47
1532;BMP280;759;53.170;8.210;2022-10-19T13:32:59;101780.28;;;15.41
1532;BMP280;759;53.170;8.210;2022-10-19T13:35:25;101782.13;;;15.51
1532;BMP280;759;53.170;8.210;2022-10-19T13:40:36;101782.94;;;15.45
1532;BMP280;759;53.170;8.210;2022-10-19T13:43:02;101776.00;;;15.47
1532;BMP280;759;53.170;8.210;2022-10-19T13:45:28;101771.50;;;15.30
1532;BMP280;759;53.170;8.210;2022-10-19T13:47:59;101768.31;;;15.42
1532;BMP280;759;53.170;8.210;2022-10-19T13:52:54;101764.91;;;15.35
1532;BMP280;759;53.170;8.210;2022-10-19T13:55:23;101766.47;;;15.32
1532;BMP280;759;53.170;8.210;2022-10-19T14:05:20;101753.47;;;15.16
1532;BMP280;759;53.170;8.210;2022-10-19T14:10:32;101723.19;;;14.98
1532;BMP280;759;53.170;8.210;2022-10-19T14:12:58;101741.97;;;15.12
1532;BMP280;759;53.170;8.210;2022-10-19T14:15:28;101745.09;;;15.03
1532;BMP280;759;53.170;8.210;2022-10-19T14:17:53;101744.06;;;14.83
1532;BMP280;759;53.170;8.210;2022-10-19T14:22:53;101739.03;;;14.89
1532;BMP280;759;53.170;8.210;2022-10-19T14:25:19;101736.00;;;14.79
1532;BMP280;759;53.170;8.210;2022-10-19T14:27:45;101727.94;;;14.76
1532;BMP280;759;53.170;8.210;2022-10-19T14:30:22;101732.94;;;14.77
1532;BMP280;759;53.170;8.210;2022-10-19T14:32:50;101728.28;;;14.81
1532;BMP280;759;53.170;8.210;2022-10-19T14:35:21;101719.06;;;14.79
1532;BMP280;759;53.170;8.210;2022-10-19T14:37:46;101716.03;;;14.66
1532;BMP280;759;53.170;8.210;2022-10-19T14:42:44;101709.53;;;14.60
1532;BMP280;759;53.170;8.210;2022-10-19T14:45:20;101708.00;;;14.59
1532;BMP280;759;53.170;8.210;2022-10-19T14:47:53;101718.41;;;14.53
1532;BMP280;759;53.170;8.210;2022-10-19T14:50:18;101713.81;;;14.50
1532;BMP280;759;53.170;8.210;2022-10-19T14:52:45;101707.72;;;14.39
1532;BMP280;759;53.170;8.210;2022-10-19T14:55:16;101705.41;;;14.41
1532;BMP280;759;53.170;8.210;2022-10-19T14:57:42;101704.63;;;14.37
1532;BMP280;759;53.170;8.210;2022-10-19T15:00:16;101695.75;;;14.36
1532;BMP280;759;53.170;8.210;2022-10-19T15:02:43;101690.38;;;14.36
1532;BMP280;759;53.170;8.210;2022-10-19T15:05:29;101693.91;;;14.26
1532;BMP280;759;53.170;8.210;2022-10-19T15:07:55;101695.06;;;14.22
1532;BMP280;759;53.170;8.210;2022-10-19T15:10:28;101698.53;;;14.22
1532;BMP280;759;53.170;8.210;2022-10-19T15:12:59;101697.78;;;14.18
1532;BMP280;759;53.170;8.210;2022-10-19T15:15:27;101682.78;;;14.06
1532;BMP280;759;53.170;8.210;2022-10-19T15:20:28;101689.34;;;14.05
1532;BMP280;759;53.170;8.210;2022-10-19T15:22:54;101687.06;;;14.04
1532;BMP280;759;53.170;8.210;2022-10-19T15:25:33;101693.19;;;14.01
1532;BMP280;759;53.170;8.210;2022-10-19T15:33:52;101686.31;;;13.89
1532;BMP280;759;53.170;8.210;2022-10-19T15:36:19;101694.00;;;13.83
1532;BMP280;759;53.170;8.210;2022-10-19T15:38:48;101687.88;;;13.79
1532;BMP280;759;53.170;8.210;2022-10-19T15:41:15;101684.81;;;13.70
1532;BMP280;759;53.170;8.210;2022-10-19T15:43:45;101684.06;;;13.66
1532;BMP280;759;53.170;8.210;2022-10-19T15:51:08;101676.00;;;13.44
1532;BMP280;759;53.170;8.210;2022-10-19T15:53:53;101681.75;;;13.43
1532;BMP280;759;53.170;8.210;2022-10-19T15:56:19;101686.75;;;13.34
1532;BMP280;759;53.170;8.210;2022-10-19T15:58:47;101690.22;;;13.27
1532;BMP280;759;53.170;8.210;2022-10-19T16:01:14;101682.91;;;13.20
1532;BMP280;759;53.170;8.210;2022-10-19T16:03:40;101690.53;;;13.15
1532;BMP280;759;53.170;8.210;2022-10-19T16:06:05;101675.97;;;13.05
1532;BMP280;759;53.170;8.210;2022-10-19T16:08:30;101672.50;;;12.94
1532;BMP280;759;53.170;8.210;2022-10-19T16:10:55;101666.34;;;12.90
1532;BMP280;759;53.170;8.210;2022-10-19T16:13:20;101669.38;;;12.77
1532;BMP280;759;53.170;8.210;2022-10-19T16:15:46;101663.19;;;12.70
1532;BMP280;759;53.170;8.210;2022-10-19T16:18:11;101665.91;;;12.66
1532;BMP280;759;53.170;8.210;2022-10-19T16:20:36;101661.63;;;12.54
1532;BMP280;759;53.170;8.210;2022-10-19T16:23:02;101659.69;;;12.44
1532;BMP280;759;53.170;8.210;2022-10-19T16:25:28;101661.56;;;12.36
1532;BMP280;759;53.170;8.210;2022-10-19T16:27:53;101656.16;;;12.29
1532;BMP280;759;53.170;8.210;2022-10-19T16:30:18;101666.09;;;12.25
1532;BMP280;759;53.170;8.210;2022-10-19T16:32:45;101664.16;;;12.22
1532;BMP280;759;53.170;8.210;2022-10-19T16:35:17;101662.59;;;12.14
1532;BMP280;759;53.170;8.210;2022-10-19T16:37:42;101649.53;;;12.02
1532;BMP280;759;53.170;8.210;2022-10-19T16:40:07;101657.53;;;11.98
1532;BMP280;759;53.170;8.210;2022-10-19T16:42:33;101649.03;;;11.89
1532;BMP280;759;53.170;8.210;2022-10-19T16:44:58;101650.53;;;11.86
1532;BMP280;759;53.170;8.210;2022-10-19T16:47:24;101656.94;;;11.71
1532;BMP280;759;53.170;8.210;2022-10-19T16:49:54;101654.22;;;11.67